Time;durP1;ratioP1;P1;durP2;ratioP2;P2;SDS_P1;SDS_P2;PMS_P1;PMS_P2;Temp;Humidity;BMP_temperature;BMP_pressure;BME280_temperature;BME280_humidity;BME280_pressure;Samples;Min_cycle;Max_cycle;Signal;HPM_P1;HPM_P2
2023/01/09 00:01:46;;;;;;;3.90;3.60;;;8.60;1.00;;;;;;5054732;28;20436;-44
2023/01/09 00:04:12;;;;;;;4.40;4.00;;;8.50;1.00;;;;;;5055628;28;20178;-44
2023/01/09 00:06:39;;;;;;;4.20;3.80;;;8.60;1.00;;;;;;5055732;28;20439;-43
2023/01/09 00:09:05;;;;;;;4.30;3.90;;;8.60;1.00;;;;;;5057087;28;20424;-44
2023/01/09 00:11:30;;;;;;;3.57;3.27;;;8.60;1.00;;;;;;5056774;28;20471;-44
2023/01/09 00:13:56;;;;;;;3.50;3.20;;;8.60;1.00;;;;;;5057206;28;20431;-44
2023/01/09 00:16:22;;;;;;;3.50;3.20;;;8.60;1.00;;;;;;5057852;28;20554;-44
2023/01/09 00:18:48;;;;;;;2.70;2.50;;;8.60;1.00;;;;;;5058400;28;20459;-43
2023/01/09 00:21:13;;;;;;;3.13;2.77;;;8.60;1.00;;;;;;5058158;28;20541;-44
2023/01/09 00:23:39;;;;;;;2.87;2.30;;;8.60;1.00;;;;;;5057867;28;20359;-44
2023/01/09 00:26:08;;;;;;;2.53;1.77;;;8.60;1.00;;;;;;5057861;28;20432;-44
2023/01/09 00:28:35;;;;;;;2.37;2.17;;;8.60;1.00;;;;;;5056269;28;20493;-44
2023/01/09 00:31:02;;;;;;;2.63;2.30;;;8.60;1.00;;;;;;5055732;28;20468;-44
2023/01/09 00:33:43;;;;;;;2.83;2.60;;;8.60;1.00;;;;;;5056726;28;20428;-44
2023/01/09 00:36:09;;;;;;;2.10;1.80;;;8.60;99.90;;;;;;5056622;28;20432;-43
2023/01/09 00:38:36;;;;;;;2.20;1.70;;;8.60;99.90;;;;;;5055304;28;20708;-43
2023/01/09 00:41:04;;;;;;;3.87;1.77;;;8.60;99.90;;;;;;5056814;28;20458;-44
2023/01/09 00:43:32;;;;;;;2.17;1.70;;;8.60;99.90;;;;;;5056277;28;20757;-44
2023/01/09 00:45:59;;;;;;;2.10;1.90;;;8.60;99.90;;;;;;5055891;28;20412;-44
2023/01/09 00:48:26;;;;;;;2.20;1.80;;;8.60;99.90;;;;;;5056025;28;20424;-44
2023/01/09 00:50:57;;;;;;;1.83;1.67;;;8.60;99.90;;;;;;5056807;28;20510;-43
2023/01/09 00:53:28;;;;;;;2.50;1.77;;;8.60;99.90;;;;;;5056760;28;20422;-42
2023/01/09 00:55:56;;;;;;;1.67;1.30;;;8.60;99.90;;;;;;5056974;28;20412;-44
2023/01/09 00:58:22;;;;;;;1.83;1.50;;;8.60;99.90;;;;;;5056915;28;20503;-43
2023/01/09 01:00:48;;;;;;;3.43;0.93;;;8.60;99.90;;;;;;5055144;28;20499;-43
2023/01/09 01:03:14;;;;;;;2.33;1.30;;;8.60;99.90;;;;;;5056953;28;20489;-45
2023/01/09 01:08:23;;;;;;;1.80;1.23;;;8.60;99.90;;;;;;5056776;28;20576;-43
2023/01/09 01:10:49;;;;;;;1.40;0.97;;;8.60;99.90;;;;;;5056335;28;20468;-44
2023/01/09 01:13:18;;;;;;;1.50;1.03;;;8.60;99.90;;;;;;5056349;28;20170;-43
2023/01/09 01:15:44;;;;;;;1.37;1.03;;;8.60;99.90;;;;;;5057828;28;20498;-43
2023/01/09 01:18:11;;;;;;;1.40;0.80;;;8.60;99.90;;;;;;5056607;28;20417;-43
2023/01/09 01:20:40;;;;;;;1.40;0.80;;;8.60;99.90;;;;;;5055481;28;20418;-43
2023/01/09 01:23:06;;;;;;;1.47;0.90;;;8.60;99.90;;;;;;5055648;28;20439;-43
2023/01/09 01:25:31;;;;;;;1.20;0.77;;;8.60;99.90;;;;;;5056860;28;20505;-43
2023/01/09 01:27:57;;;;;;;0.90;0.67;;;8.50;99.90;;;;;;5056906;28;20189;-43
2023/01/09 01:30:23;;;;;;;1.37;0.97;;;8.50;99.90;;;;;;5056932;28;20624;-43
2023/01/09 01:32:48;;;;;;;1.20;0.80;;;8.50;99.90;;;;;;5056861;28;20182;-43
2023/01/09 01:35:14;;;;;;;1.20;0.70;;;8.50;99.90;;;;;;5056721;28;20427;-43
2023/01/09 01:37:40;;;;;;;1.30;0.60;;;8.50;99.90;;;;;;5056190;28;20188;-43
2023/01/09 01:40:07;;;;;;;2.13;0.90;;;8.50;99.90;;;;;;5056765;28;20243;-43
2023/01/09 01:42:33;;;;;;;1.03;0.60;;;8.50;99.90;;;;;;5057277;28;20276;-35
2023/01/09 01:45:27;;;;;;;0.93;0.60;;;8.50;99.90;;;;;;5057200;28;20436;-37
2023/01/09 01:48:03;;;;;;;1.10;0.73;;;8.50;99.90;;;;;;5057455;28;20798;-37
2023/01/09 01:50:45;;;;;;;1.13;0.80;;;8.40;99.90;;;;;;5055816;28;20728;-34
2023/01/09 01:53:20;;;;;;;0.90;0.60;;;8.40;99.90;;;;;;5057200;28;20447;-37
2023/01/09 01:56:04;;;;;;;0.90;0.57;;;8.40;99.90;;;;;;5056169;28;20505;-39
2023/01/09 01:58:31;;;;;;;1.00;0.70;;;8.40;1.00;;;;;;5057221;28;20415;-37
2023/01/09 02:00:57;;;;;;;1.40;0.90;;;8.40;99.90;;;;;;5056445;28;20499;-39
2023/01/09 02:03:26;;;;;;;1.13;0.67;;;8.40;1.00;;;;;;5056719;28;20435;-34
2023/01/09 02:05:51;;;;;;;1.40;1.00;;;8.40;1.00;;;;;;5057699;28;20512;-34
2023/01/09 02:08:18;;;;;;;1.40;1.10;;;8.40;1.00;;;;;;5060381;28;20408;-35
2023/01/09 02:10:44;;;;;;;1.00;0.80;;;8.40;1.00;;;;;;5059367;28;20213;-34
2023/01/09 02:13:10;;;;;;;1.13;0.70;;;8.30;1.00;;;;;;5060345;28;20427;-34
2023/01/09 02:15:47;;;;;;;1.40;0.80;;;8.40;1.00;;;;;;5060002;28;20684;-34
2023/01/09 02:18:44;;;;;;;1.33;1.03;;;8.30;1.00;;;;;;5056367;28;20843;-34
2023/01/09 02:21:43;;;;;;;1.23;1.00;;;8.40;1.00;;;;;;5058395;28;20824;-35
2023/01/09 02:24:21;;;;;;;1.10;0.90;;;8.40;1.00;;;;;;5004257;28;20469;-35
2023/01/09 02:27:23;;;;;;;1.43;0.93;;;8.30;1.00;;;;;;5057954;28;20497;-35
2023/01/09 02:30:19;;;;;;;1.00;0.70;;;8.30;1.00;;;;;;5059090;28;20843;-35
2023/01/09 02:32:59;;;;;;;1.30;1.20;;;8.30;1.00;;;;;;5059729;28;20923;-34
2023/01/09 02:35:43;;;;;;;1.33;0.80;;;8.30;1.00;;;;;;5060172;28;20392;-35
2023/01/09 02:38:13;;;;;;;0.97;0.80;;;8.30;1.00;;;;;;5058534;28;20471;-35
2023/01/09 02:40:41;;;;;;;0.90;0.60;;;8.30;1.00;;;;;;5059470;28;20667;-35
2023/01/09 02:43:07;;;;;;;1.00;0.60;;;8.30;1.00;;;;;;5059804;28;20432;-35
2023/01/09 02:45:33;;;;;;;1.20;0.70;;;8.30;1.00;;;;;;5058941;28;20431;-35
2023/01/09 02:47:58;;;;;;;1.87;0.80;;;8.30;1.00;;;;;;5058342;28;20480;-37
2023/01/09 02:51:08;;;;;;;1.67;0.50;;;8.30;1.00;;;;;;5059442;28;20219;-33
2023/01/09 02:53:34;;;;;;;0.87;0.60;;;8.30;1.00;;;;;;5057909;28;20197;-34
2023/01/09 02:56:38;;;;;;;0.90;0.43;;;8.30;99.90;;;;;;5057604;28;20779;-35
2023/01/09 02:59:20;;;;;;;1.23;0.60;;;8.30;99.90;;;;;;5053131;28;20303;-35
2023/01/09 03:02:06;;;;;;;1.00;0.60;;;8.20;1.00;;;;;;5055496;28;20439;-34
2023/01/09 03:04:34;;;;;;;1.00;0.83;;;8.20;99.90;;;;;;5054605;28;20729;-35
2023/01/09 03:07:23;;;;;;;2.00;0.60;;;8.20;1.00;;;;;;5056536;28;20412;-35
2023/01/09 03:09:51;;;;;;;3.23;0.40;;;8.20;1.00;;;;;;5056856;28;20440;-34
2023/01/09 03:12:19;;;;;;;0.90;0.50;;;8.20;1.00;;;;;;5058143;28;20494;-34
2023/01/09 03:14:49;;;;;;;1.30;0.40;;;8.20;1.00;;;;;;5056987;28;20432;-33
2023/01/09 03:17:19;;;;;;;0.97;0.47;;;8.10;1.00;;;;;;5055959;28;20421;-34
2023/01/09 03:19:46;;;;;;;0.80;0.40;;;8.10;1.00;;;;;;5058943;28;20748;-34
2023/01/09 03:22:11;;;;;;;2.30;0.43;;;8.10;1.00;;;;;;5058302;28;20427;-34
2023/01/09 03:24:37;;;;;;;0.70;0.30;;;8.10;99.90;;;;;;5059550;28;20930;-34
2023/01/09 03:27:06;;;;;;;0.80;0.40;;;8.10;99.90;;;;;;5059315;28;20185;-34
2023/01/09 03:29:32;;;;;;;0.73;0.30;;;8.00;99.90;;;;;;5058406;28;20444;-34
2023/01/09 03:31:58;;;;;;;0.70;0.30;;;8.00;99.90;;;;;;5058017;28;20478;-35
2023/01/09 03:34:23;;;;;;;0.70;0.30;;;8.00;99.90;;;;;;5058200;28;20186;-34
2023/01/09 03:36:49;;;;;;;0.70;0.30;;;8.00;99.90;;;;;;5059173;28;20186;-37
2023/01/09 03:39:15;;;;;;;0.60;0.20;;;8.00;99.90;;;;;;5059240;28;20269;-34
2023/01/09 03:41:40;;;;;;;2.60;0.50;;;8.00;99.90;;;;;;5058606;28;20537;-34
2023/01/09 03:44:06;;;;;;;0.90;0.50;;;8.00;99.90;;;;;;5057141;28;20185;-33
2023/01/09 03:46:31;;;;;;;0.80;0.30;;;8.00;99.90;;;;;;5058686;28;20322;-35
2023/01/09 03:48:57;;;;;;;1.67;0.57;;;8.00;99.90;;;;;;5059381;28;20186;-34
2023/01/09 03:51:23;;;;;;;1.13;0.73;;;8.00;99.90;;;;;;5058875;28;20484;-35
2023/01/09 03:53:48;;;;;;;0.93;0.60;;;8.00;99.90;;;;;;5059073;28;20182;-35
2023/01/09 03:56:14;;;;;;;1.00;0.60;;;7.90;1.00;;;;;;5057926;28;20170;-35
2023/01/09 03:58:39;;;;;;;0.93;0.57;;;7.90;1.00;;;;;;5057582;28;20544;-35
2023/01/09 04:01:08;;;;;;;1.10;0.60;;;7.90;1.00;;;;;;5058053;28;20214;-35
2023/01/09 04:03:34;;;;;;;1.23;0.60;;;7.90;1.00;;;;;;5058835;28;20468;-36
2023/01/09 04:06:00;;;;;;;0.90;0.33;;;7.90;1.00;;;;;;5057457;28;20420;-35
2023/01/09 04:08:25;;;;;;;0.90;0.37;;;7.90;99.90;;;;;;5057571;28;20184;-35
2023/01/09 04:10:51;;;;;;;1.43;0.40;;;7.90;99.90;;;;;;5057722;28;20471;-35
2023/01/09 04:13:17;;;;;;;0.70;0.30;;;7.90;99.90;;;;;;5056759;28;20185;-35
2023/01/09 04:15:43;;;;;;;0.70;0.30;;;7.80;99.90;;;;;;5055733;28;20542;-35
2023/01/09 04:18:08;;;;;;;1.30;0.30;;;7.80;99.90;;;;;;5056395;28;20746;-35
2023/01/09 04:20:34;;;;;;;0.70;0.33;;;7.80;99.90;;;;;;5055101;28;20192;-35
2023/01/09 04:23:00;;;;;;;1.40;0.30;;;7.80;1.00;;;;;;5056728;28;20581;-36
2023/01/09 04:25:26;;;;;;;0.80;0.20;;;7.70;1.00;;;;;;5055567;28;20541;-36
2023/01/09 04:27:52;;;;;;;1.57;0.30;;;7.70;99.90;;;;;;5054887;28;20443;-36
2023/01/09 04:30:18;;;;;;;0.83;0.53;;;7.70;99.90;;;;;;5056684;28;20192;-35
2023/01/09 04:32:43;;;;;;;0.70;0.30;;;7.60;1.00;;;;;;5055381;28;20205;-36
2023/01/09 04:35:09;;;;;;;0.60;0.20;;;7.60;1.00;;;;;;5057360;28;20424;-36
2023/01/09 04:37:35;;;;;;;1.00;0.27;;;7.60;1.00;;;;;;5057873;28;20184;-36
2023/01/09 04:40:06;;;;;;;0.70;0.20;;;7.60;1.00;;;;;;5057503;28;20177;-35
2023/01/09 04:42:35;;;;;;;1.83;0.40;;;7.50;1.00;;;;;;5056051;28;20408;-35
2023/01/09 04:45:01;;;;;;;0.90;0.40;;;7.50;1.00;;;;;;5055918;28;20438;-36
2023/01/09 04:47:29;;;;;;;0.60;0.27;;;7.50;1.00;;;;;;5056363;28;20563;-36
2023/01/09 04:49:55;;;;;;;0.73;0.40;;;7.50;1.00;;;;;;5054889;28;20430;-36
2023/01/09 04:52:21;;;;;;;0.60;0.20;;;7.40;1.00;;;;;;5056002;28;20459;-36
2023/01/09 04:55:06;;;;;;;1.00;0.47;;;7.40;1.00;;;;;;5056609;28;20465;-36
2023/01/09 04:57:32;;;;;;;0.70;0.30;;;7.40;1.00;;;;;;5053763;28;20173;-35
2023/01/09 04:59:58;;;;;;;0.80;0.40;;;7.30;1.00;;;;;;5052512;28;20828;-36
2023/01/09 05:02:23;;;;;;;0.77;0.40;;;7.30;1.00;;;;;;5051156;28;20420;-35
2023/01/09 05:05:08;;;;;;;0.80;0.40;;;7.30;1.00;;;;;;5053856;28;20568;-36
2023/01/09 05:07:34;;;;;;;0.70;0.40;;;7.20;1.00;;;;;;5051326;28;20180;-36
2023/01/09 05:10:00;;;;;;;1.07;0.30;;;7.20;1.00;;;;;;5051693;28;20523;-35
2023/01/09 05:12:25;;;;;;;2.30;0.30;;;7.20;1.00;;;;;;5055009;28;20456;-36
2023/01/09 05:14:51;;;;;;;1.00;0.50;;;7.10;1.00;;;;;;5056714;28;20429;-36
2023/01/09 05:17:17;;;;;;;0.80;0.37;;;7.10;1.00;;;;;;5056455;28;20404;-35
2023/01/09 05:19:44;;;;;;;1.17;0.50;;;7.10;1.00;;;;;;5056738;28;20178;-36
2023/01/09 05:22:13;;;;;;;0.87;0.43;;;7.00;1.00;;;;;;5056850;28;20251;-36
2023/01/09 05:24:39;;;;;;;0.77;0.30;;;7.00;1.00;;;;;;5054778;28;20587;-36
2023/01/09 05:27:04;;;;;;;1.10;0.40;;;6.90;1.00;;;;;;5055707;28;20447;-36
2023/01/09 05:29:30;;;;;;;0.80;0.40;;;6.90;1.00;;;;;;5056585;28;20185;-35
2023/01/09 05:31:56;;;;;;;0.97;0.30;;;6.80;1.00;;;;;;5056866;28;20196;-36
2023/01/09 05:34:21;;;;;;;1.53;0.50;;;6.80;1.00;;;;;;5057107;28;20178;-35
2023/01/09 05:36:47;;;;;;;1.30;0.40;;;6.70;1.00;;;;;;5055286;28;20162;-36
2023/01/09 05:39:13;;;;;;;1.07;0.40;;;6.70;1.00;;;;;;5058086;28;20604;-35
2023/01/09 05:41:39;;;;;;;0.90;0.43;;;6.70;1.00;;;;;;5059055;28;20209;-36
2023/01/09 05:44:04;;;;;;;1.10;0.50;;;6.60;99.90;;;;;;5057058;28;20463;-36
2023/01/09 05:46:31;;;;;;;0.70;0.30;;;6.60;99.90;;;;;;5055526;28;20630;-36
2023/01/09 05:48:56;;;;;;;1.27;0.30;;;6.50;99.90;;;;;;5057635;28;20444;-35
2023/01/09 05:51:22;;;;;;;0.87;0.33;;;6.50;99.90;;;;;;5056005;28;20467;-36
2023/01/09 05:53:48;;;;;;;1.30;0.60;;;6.40;1.00;;;;;;5053747;28;20523;-36
2023/01/09 05:56:14;;;;;;;1.00;0.40;;;6.40;1.00;;;;;;5054739;28;20174;-36
2023/01/09 05:58:40;;;;;;;1.80;0.67;;;6.40;1.00;;;;;;5057107;28;20188;-36
2023/01/09 06:01:07;;;;;;;1.30;0.60;;;6.30;1.00;;;;;;5038896;28;20428;-36
2023/01/09 06:03:33;;;;;;;1.47;0.43;;;6.30;1.00;;;;;;5058262;28;20432;-36
2023/01/09 06:06:16;;;;;;;1.20;0.50;;;6.30;1.00;;;;;;5054967;28;20420;-35
2023/01/09 06:08:41;;;;;;;1.30;0.50;;;6.20;1.00;;;;;;5055241;28;20430;-35
2023/01/09 06:11:07;;;;;;;1.00;0.60;;;6.20;1.00;;;;;;5056513;28;20463;-35
2023/01/09 06:13:33;;;;;;;1.27;0.40;;;6.20;1.00;;;;;;5057167;28;20174;-36
2023/01/09 06:15:58;;;;;;;1.30;0.70;;;6.10;1.00;;;;;;5054791;28;20177;-36
2023/01/09 06:18:24;;;;;;;1.90;0.50;;;6.10;1.00;;;;;;5055479;28;20192;-36
2023/01/09 06:20:50;;;;;;;1.03;0.50;;;6.10;1.00;;;;;;5054314;28;20453;-35
2023/01/09 06:23:16;;;;;;;3.33;1.03;;;6.10;1.00;;;;;;5054580;28;20325;-35
2023/01/09 06:25:41;;;;;;;1.20;0.57;;;6.00;99.90;;;;;;5054077;28;20497;-36
2023/01/09 06:28:07;;;;;;;1.47;0.73;;;6.00;1.00;;;;;;5053004;28;20446;-36
2023/01/09 06:30:33;;;;;;;1.60;0.87;;;6.00;1.00;;;;;;5048819;28;20260;-37
2023/01/09 06:32:58;;;;;;;1.17;0.70;;;6.00;1.00;;;;;;5048214;28;20421;-36
2023/01/09 06:35:24;;;;;;;1.80;0.73;;;5.90;1.00;;;;;;5055307;28;20181;-36
2023/01/09 06:37:50;;;;;;;2.13;1.00;;;5.90;1.00;;;;;;5056557;28;20193;-35
2023/01/09 06:40:17;;;;;;;2.50;0.70;;;5.90;1.00;;;;;;5057529;28;20413;-37
2023/01/09 06:42:46;;;;;;;2.47;0.63;;;5.90;1.00;;;;;;5054720;28;20173;-36
2023/01/09 06:45:13;;;;;;;2.10;0.87;;;5.90;99.90;;;;;;5055088;28;20417;-35
2023/01/09 06:47:39;;;;;;;1.57;0.73;;;5.90;99.90;;;;;;5050719;28;20510;-35
2023/01/09 06:50:05;;;;;;;3.37;0.87;;;5.90;99.90;;;;;;5053925;28;20420;-36
2023/01/09 06:52:31;;;;;;;1.97;0.97;;;5.90;99.90;;;;;;5053332;28;20477;-36
2023/01/09 06:54:57;;;;;;;1.50;0.93;;;5.90;99.90;;;;;;5052762;28;20949;-35
2023/01/09 06:57:22;;;;;;;1.63;0.50;;;5.90;99.90;;;;;;5051199;28;20170;-35
2023/01/09 06:59:48;;;;;;;2.00;0.70;;;5.90;99.90;;;;;;5052610;28;20449;-35
2023/01/09 07:02:18;;;;;;;2.23;0.73;;;5.90;99.90;;;;;;5052609;28;20174;-35
2023/01/09 07:04:43;;;;;;;2.40;0.97;;;5.90;99.90;;;;;;5051340;28;20432;-36
2023/01/09 07:07:09;;;;;;;2.07;0.73;;;6.00;99.90;;;;;;5053181;28;20416;-35
2023/01/09 07:09:35;;;;;;;1.60;0.70;;;6.00;99.90;;;;;;5056749;28;20181;-36
2023/01/09 07:12:00;;;;;;;3.23;0.90;;;6.00;99.90;;;;;;5058987;28;20237;-36
2023/01/09 07:14:27;;;;;;;5.50;1.77;;;6.00;99.90;;;;;;5060728;28;20186;-36
2023/01/09 07:16:53;;;;;;;4.40;1.57;;;6.10;99.90;;;;;;5058962;28;20166;-36
2023/01/09 07:19:19;;;;;;;2.80;0.83;;;6.10;99.90;;;;;;5061515;28;20450;-36
2023/01/09 07:21:45;;;;;;;3.80;0.70;;;6.10;99.90;;;;;;5061421;28;20412;-34
2023/01/09 07:24:10;;;;;;;2.90;0.67;;;6.10;99.90;;;;;;5058477;28;20584;-35
2023/01/09 07:26:36;;;;;;;5.57;1.50;;;6.10;99.90;;;;;;5058097;28;20209;-36
2023/01/09 07:29:02;;;;;;;4.80;0.80;;;6.10;99.90;;;;;;5060897;28;20331;-36
2023/01/09 07:31:28;;;;;;;5.00;0.67;;;6.10;99.90;;;;;;5054756;28;20355;-36
2023/01/09 07:33:53;;;;;;;5.43;0.60;;;6.10;99.90;;;;;;5054072;28;20503;-36
2023/01/09 07:36:19;;;;;;;3.33;1.67;;;6.20;99.90;;;;;;5053943;28;20252;-36
2023/01/09 07:38:44;;;;;;;2.10;0.83;;;6.20;99.90;;;;;;5053481;28;20190;-36
2023/01/09 07:41:10;;;;;;;1.60;0.80;;;6.20;99.90;;;;;;5054136;28;20186;-36
2023/01/09 07:43:37;;;;;;;5.10;1.20;;;6.20;99.90;;;;;;5053620;28;20209;-36
2023/01/09 07:46:04;;;;;;;5.40;0.80;;;6.30;99.90;;;;;;5051009;28;20185;-35
2023/01/09 07:48:29;;;;;;;1.80;0.70;;;6.30;99.90;;;;;;5051229;28;20451;-36
2023/01/09 07:50:55;;;;;;;1.87;1.07;;;6.30;99.90;;;;;;5050295;28;20468;-36
2023/01/09 07:53:20;;;;;;;1.93;0.73;;;6.40;99.90;;;;;;5051183;28;20232;-36
2023/01/09 07:55:46;;;;;;;1.30;0.80;;;6.40;99.90;;;;;;5052237;28;20169;-36
2023/01/09 07:58:12;;;;;;;2.67;0.90;;;6.50;99.90;;;;;;5050409;28;20178;-35
2023/01/09 08:00:37;;;;;;;1.60;0.90;;;6.60;99.20;;;;;;5052501;28;20173;-36
2023/01/09 08:03:03;;;;;;;2.10;0.83;;;6.70;1.00;;;;;;5053220;28;20166;-36
2023/01/09 08:05:29;;;;;;;3.10;0.80;;;6.80;99.90;;;;;;5052807;28;20177;-36
2023/01/09 08:07:54;;;;;;;1.87;1.00;;;6.80;99.90;;;;;;5052742;28;20409;-36
2023/01/09 08:10:20;;;;;;;2.23;1.07;;;6.90;99.90;;;;;;5052022;28;20512;-35
2023/01/09 08:12:47;;;;;;;1.93;1.00;;;7.10;99.90;;;;;;5054408;28;20196;-36
2023/01/09 08:15:13;;;;;;;2.47;0.83;;;7.60;1.00;;;;;;5054662;28;20344;-36
2023/01/09 08:17:41;;;;;;;2.17;1.20;;;8.00;1.00;;;;;;5053947;28;20409;-36
2023/01/09 08:20:07;;;;;;;2.93;0.90;;;8.20;1.00;;;;;;5055340;28;20458;-36
2023/01/09 08:22:33;;;;;;;4.53;1.07;;;8.30;1.00;;;;;;5055944;28;20431;-36
2023/01/09 08:24:58;;;;;;;3.80;0.70;;;8.40;99.90;;;;;;5056649;28;20429;-37
2023/01/09 08:27:24;;;;;;;2.53;0.97;;;8.40;99.90;;;;;;5056178;28;20185;-36
2023/01/09 08:29:49;;;;;;;1.90;1.00;;;8.50;99.90;;;;;;5055839;28;20194;-35
2023/01/09 08:32:15;;;;;;;1.80;0.77;;;8.40;83.20;;;;;;5057070;28;20213;-35
2023/01/09 08:34:41;;;;;;;2.87;0.87;;;8.20;36.60;;;;;;5056627;28;20181;-37
2023/01/09 08:37:06;;;;;;;4.40;0.90;;;8.10;99.90;;;;;;5056347;28;20205;-36
2023/01/09 08:39:32;;;;;;;2.20;0.70;;;7.90;99.90;;;;;;5056006;28;20453;-36
2023/01/09 08:47:27;;;;;;;1.17;0.63;;;7.50;1.00;;;;;;5055677;28;20568;-36
2023/01/09 08:49:53;;;;;;;3.27;0.80;;;7.40;4.30;;;;;;5055251;28;21014;-36
2023/01/09 08:52:19;;;;;;;1.80;0.90;;;7.40;99.90;;;;;;5054488;28;20503;-36
2023/01/09 08:54:44;;;;;;;2.20;0.83;;;7.40;99.90;;;;;;5054240;28;20181;-37
2023/01/09 08:57:10;;;;;;;3.03;1.17;;;7.40;99.90;;;;;;5054968;28;20561;-35
2023/01/09 08:59:35;;;;;;;1.60;1.00;;;7.50;99.90;;;;;;5055491;28;20235;-36
2023/01/09 09:02:01;;;;;;;2.07;0.90;;;8.30;1.00;;;;;;5054724;28;20422;-37
2023/01/09 09:04:27;;;;;;;2.20;0.80;;;9.80;99.90;;;;;;5054627;28;20217;-36
2023/01/09 09:06:52;;;;;;;1.37;0.83;;;11.50;16.60;;;;;;5054586;28;20174;-37
2023/01/09 09:09:18;;;;;;;1.50;0.70;;;13.20;99.90;;;;;;5053799;28;20212;-37
2023/01/09 09:11:44;;;;;;;1.97;0.90;;;14.00;17.50;;;;;;5053735;28;20215;-37
2023/01/09 09:17:13;;;;;;;1.93;1.10;;;15.10;1.00;;;;;;5036076;28;20201;-37
2023/01/09 09:19:41;;;;;;;2.43;0.87;;;15.90;1.00;;;;;;5037434;28;20472;-36
2023/01/09 09:22:07;;;;;;;3.10;1.20;;;15.90;1.00;;;;;;5046756;28;20190;-37
2023/01/09 09:24:32;;;;;;;2.37;0.83;;;15.70;1.00;;;;;;5057757;28;20876;-36
2023/01/09 09:26:58;;;;;;;2.50;0.80;;;15.30;1.00;;;;;;5060051;28;20504;-37
2023/01/09 09:29:24;;;;;;;2.63;0.90;;;15.10;1.00;;;;;;5058197;28;20259;-36
2023/01/09 09:31:49;;;;;;;2.23;1.00;;;15.10;1.00;;;;;;5058962;28;20205;-37
2023/01/09 09:34:15;;;;;;;2.43;1.00;;;14.90;1.00;;;;;;5059685;28;20181;-36
2023/01/09 09:36:40;;;;;;;3.00;1.20;;;14.80;1.00;;;;;;5058784;28;20557;-36
2023/01/09 09:39:07;;;;;;;1.40;0.80;;;14.90;1.00;;;;;;5060147;28;20609;-36
2023/01/09 09:44:43;;;;;;;2.03;1.13;;;14.20;1.00;;;;;;5057110;28;20419;-37
2023/01/09 09:47:30;;;;;;;2.37;1.10;;;13.90;1.00;;;;;;5057650;28;20958;-36
2023/01/09 09:50:16;;;;;;;2.10;1.17;;;13.60;1.00;;;;;;5058290;28;20432;-37
2023/01/09 09:52:58;;;;;;;2.23;0.93;;;13.20;1.00;;;;;;5058871;28;20711;-37
2023/01/09 09:55:29;;;;;;;2.73;1.17;;;12.70;1.00;;;;;;5056918;28;20811;-36
2023/01/09 09:57:55;;;;;;;2.67;0.90;;;12.40;1.00;;;;;;5055540;28;20808;-36
2023/01/09 10:00:22;;;;;;;3.60;1.20;;;12.00;1.00;;;;;;5056131;28;20453;-36
2023/01/09 10:02:55;;;;;;;6.33;2.53;;;11.60;1.00;;;;;;5058781;28;20415;-37
2023/01/09 10:05:30;;;;;;;3.90;1.70;;;11.30;1.00;;;;;;5057851;28;20696;-37
2023/01/09 10:07:59;;;;;;;2.60;1.20;;;11.10;1.00;;;;;;5040958;28;20447;-36
2023/01/09 10:10:38;;;;;;;3.50;1.13;;;11.00;1.00;;;;;;5055639;28;20811;-36
2023/01/09 10:16:06;;;;;;;2.30;1.33;;;10.70;1.00;;;;;;5057478;28;20408;-36
2023/01/09 10:18:57;;;;;;;2.80;0.93;;;10.50;1.00;;;;;;5040956;28;20463;-37
2023/01/09 10:21:22;;;;;;;3.07;1.60;;;10.50;7.80;;;;;;5056735;28;20712;-36
2023/01/09 10:23:54;;;;;;;3.10;1.57;;;10.40;22.30;;;;;;5058446;28;20427;-36
2023/01/09 10:26:27;;;;;;;1.63;0.87;;;10.40;28.70;;;;;;5057132;28;20208;-37
2023/01/09 10:29:14;;;;;;;3.00;1.30;;;10.30;50.40;;;;;;5055525;28;20506;-37
2023/01/09 10:32:02;;;;;;;4.33;1.20;;;10.30;53.40;;;;;;5055677;28;20833;-36
2023/01/09 10:34:41;;;;;;;3.93;1.20;;;10.20;58.90;;;;;;5056987;28;20844;-36
2023/01/09 10:37:15;;;;;;;2.60;1.20;;;10.10;92.70;;;;;;5056530;28;20411;-37
2023/01/09 10:39:47;;;;;;;3.27;1.23;;;10.00;99.90;;;;;;5055722;28;20527;-36
2023/01/09 10:42:32;;;;;;;1.80;0.80;;;9.90;99.90;;;;;;5054017;28;20405;-36
2023/01/09 10:45:39;;;;;;;2.23;1.10;;;9.90;99.90;;;;;;5053844;28;20423;-36
2023/01/09 10:48:37;;;;;;;2.90;0.97;;;10.50;99.90;;;;;;5055080;28;20801;-37
2023/01/09 10:51:24;;;;;;;4.53;1.70;;;11.00;99.90;;;;;;5055979;28;20700;-36
2023/01/09 10:53:54;;;;;;;2.30;1.30;;;11.50;99.90;;;;;;5054640;28;20424;-37
2023/01/09 10:56:26;;;;;;;3.37;0.90;;;11.80;1.00;;;;;;5056610;28;20416;-36
2023/01/09 10:58:53;;;;;;;2.77;1.43;;;12.10;99.90;;;;;;5056248;28;20474;-37
2023/01/09 11:01:26;;;;;;;4.07;1.30;;;12.40;99.90;;;;;;5054536;28;20903;-36
2023/01/09 11:03:52;;;;;;;3.93;1.17;;;12.50;51.90;;;;;;5054247;28;20848;-37
2023/01/09 11:06:21;;;;;;;3.93;1.73;;;12.60;99.90;;;;;;5056363;28;20428;-36
2023/01/09 11:08:49;;;;;;;5.33;2.00;;;12.40;1.00;;;;;;5054890;28;20564;-37
2023/01/09 11:11:34;;;;;;;7.67;1.90;;;12.10;99.90;;;;;;5055722;28;20492;-37
2023/01/09 11:14:12;;;;;;;3.97;1.90;;;11.70;99.90;;;;;;5054707;28;20424;-37
2023/01/09 11:17:00;;;;;;;3.77;1.50;;;11.40;99.90;;;;;;5056459;28;20400;-36
2023/01/09 11:19:26;;;;;;;3.87;1.30;;;11.20;99.90;;;;;;5055353;28;20428;-37
2023/01/09 11:22:16;;;;;;;3.73;1.50;;;11.10;99.90;;;;;;5055525;28;20692;-36
2023/01/09 11:24:43;;;;;;;3.00;1.20;;;11.10;99.90;;;;;;5054827;28;20716;-36
2023/01/09 11:27:12;;;;;;;3.27;1.27;;;11.50;99.90;;;;;;5054849;28;20404;-37
2023/01/09 11:29:38;;;;;;;2.10;1.00;;;12.90;59.90;;;;;;5056157;28;20439;-37
2023/01/09 11:32:03;;;;;;;2.23;1.00;;;15.00;1.00;;;;;;5055005;28;20459;-38
2023/01/09 11:34:31;;;;;;;6.87;1.57;;;17.30;1.00;;;;;;5052043;28;20883;-38
2023/01/09 11:37:10;;;;;;;4.40;1.00;;;19.20;1.00;;;;;;5053674;28;20170;-35
2023/01/09 11:39:40;;;;;;;3.23;1.27;;;19.80;1.00;;;;;;5055494;28;20424;-39
2023/01/09 11:42:08;;;;;;;4.20;1.10;;;19.50;1.00;;;;;;5056314;28;20408;-37
2023/01/09 11:44:33;;;;;;;3.23;1.00;;;18.60;1.00;;;;;;5056305;28;20443;-37
2023/01/09 11:46:59;;;;;;;3.10;1.03;;;17.60;1.00;;;;;;5055926;28;20697;-36
2023/01/09 11:49:26;;;;;;;3.40;1.50;;;16.80;1.00;;;;;;5054840;28;20201;-36
2023/01/09 11:52:20;;;;;;;5.03;1.40;;;16.00;1.00;;;;;;5051291;28;20266;-37
2023/01/09 11:55:06;;;;;;;2.10;0.87;;;15.20;1.00;;;;;;5054650;28;20448;-37
2023/01/09 11:57:33;;;;;;;2.50;1.10;;;14.40;1.00;;;;;;5053336;28;20412;-37
2023/01/09 12:00:02;;;;;;;3.00;1.20;;;13.90;1.00;;;;;;5055007;28;20473;-37
2023/01/09 12:02:52;;;;;;;2.80;1.00;;;13.50;1.00;;;;;;5051476;28;20408;-37
2023/01/09 12:05:21;;;;;;;3.30;1.30;;;13.20;1.00;;;;;;5054302;28;20477;-37
2023/01/09 12:08:04;;;;;;;5.27;1.13;;;13.00;1.00;;;;;;5055153;28;20423;-36
2023/01/09 12:10:42;;;;;;;3.00;1.00;;;12.70;1.00;;;;;;5054201;28;20577;-36
2023/01/09 12:13:35;;;;;;;4.80;1.20;;;12.40;1.00;;;;;;5053046;28;20518;-36
2023/01/09 12:16:10;;;;;;;2.67;1.10;;;12.30;1.00;;;;;;5055494;28;20404;-36
2023/01/09 12:19:04;;;;;;;4.47;1.60;;;12.20;1.00;;;;;;5052153;28;20904;-37
2023/01/09 12:21:33;;;;;;;2.77;1.33;;;12.10;1.00;;;;;;5052704;28;20413;-36
2023/01/09 12:23:59;;;;;;;2.80;1.10;;;12.10;1.00;;;;;;5053716;28;20432;-36
2023/01/09 12:26:45;;;;;;;4.63;1.90;;;11.90;1.00;;;;;;5050780;28;20758;-36
2023/01/09 12:29:33;;;;;;;2.70;1.40;;;11.80;1.00;;;;;;5020318;28;20204;-36
2023/01/09 12:32:03;;;;;;;5.13;2.60;;;11.70;1.00;;;;;;5049584;28;20919;-36
2023/01/09 12:34:44;;;;;;;5.40;3.80;;;11.80;1.00;;;;;;5049738;28;20428;-37
2023/01/09 12:37:51;;;;;;;4.00;2.70;;;11.80;1.00;;;;;;5051993;28;20438;-37
2023/01/09 12:40:51;;;;;;;3.47;1.47;;;11.70;1.00;;;;;;5051935;28;20416;-37
2023/01/09 12:43:35;;;;;;;3.50;1.60;;;11.70;1.00;;;;;;5038892;28;20440;-36
2023/01/09 12:46:19;;;;;;;4.03;1.30;;;11.60;1.00;;;;;;5049881;28;20404;-36
2023/01/09 12:49:20;;;;;;;3.00;1.23;;;11.40;1.00;;;;;;5047034;28;20455;-37
2023/01/09 12:51:52;;;;;;;2.40;1.20;;;11.20;1.00;;;;;;5049298;28;20601;-37
2023/01/09 12:54:40;;;;;;;2.00;1.07;;;11.10;1.00;;;;;;5048940;28;20540;-37
2023/01/09 12:57:23;;;;;;;5.30;1.37;;;11.10;1.00;;;;;;5052073;28;20405;-37
2023/01/09 13:00:17;;;;;;;5.40;0.97;;;11.00;1.00;;;;;;5050875;28;20423;-37
2023/01/09 13:03:05;;;;;;;3.13;1.03;;;10.90;4.90;;;;;;5052103;28;20409;-37
2023/01/09 13:05:36;;;;;;;4.13;1.10;;;10.80;30.00;;;;;;5041622;28;20459;-37
2023/01/09 13:08:24;;;;;;;1.60;0.83;;;10.60;99.90;;;;;;5053269;28;20412;-37
2023/01/09 13:11:05;;;;;;;4.63;0.87;;;10.50;99.90;;;;;;5052502;28;20474;-37
2023/01/09 13:13:58;;;;;;;3.53;0.80;;;10.50;99.90;;;;;;5035446;28;20432;-37
2023/01/09 13:16:31;;;;;;;1.87;0.80;;;10.60;1.00;;;;;;5049696;28;20965;-36
2023/01/09 13:19:18;;;;;;;2.37;1.00;;;10.70;1.00;;;;;;5051536;28;20419;-37
2023/01/09 13:21:44;;;;;;;1.93;0.83;;;10.70;1.00;;;;;;5052192;28;20745;-36
2023/01/09 13:24:46;;;;;;;1.63;0.80;;;10.70;1.00;;;;;;5053936;28;20601;-37
2023/01/09 13:27:22;;;;;;;3.07;0.87;;;10.60;1.00;;;;;;5000660;28;20437;-37
2023/01/09 13:29:51;;;;;;;1.83;0.73;;;10.40;1.00;;;;;;5052383;28;20523;-36
2023/01/09 13:32:31;;;;;;;2.53;0.80;;;10.20;1.00;;;;;;5054530;28;20463;-36
2023/01/09 13:34:57;;;;;;;1.63;0.80;;;10.20;1.00;;;;;;5055036;28;20748;-37
2023/01/09 13:37:34;;;;;;;1.50;0.50;;;10.30;1.00;;;;;;5054967;28;20447;-37